createdAt,value
2019-02-22T08:59:27.666Z,8.60
2019-02-22T09:01:56.379Z,8.87
2019-02-22T09:04:25.356Z,9.10
2019-02-22T09:06:54.058Z,9.30
2019-02-22T09:09:22.814Z,9.10
2019-02-22T09:11:51.625Z,8.23
2019-02-22T09:14:20.314Z,9.47
2019-02-22T09:16:55.839Z,9.37
2019-02-22T09:19:31.726Z,10.63
2019-02-22T09:22:00.499Z,9.80
2019-02-22T09:24:29.470Z,9.10
2019-02-22T09:26:58.152Z,8.97
2019-02-22T09:29:26.754Z,10.40
2019-02-22T09:31:55.591Z,9.70
2019-02-22T09:34:25.913Z,10.23
2019-02-22T09:36:54.577Z,10.80
2019-02-22T09:39:23.352Z,9.40
2019-02-22T09:41:52.220Z,10.60
2019-02-22T09:44:20.996Z,9.47
2019-02-22T09:46:49.766Z,9.10
2019-02-22T09:49:18.572Z,7.70
2019-02-22T09:51:47.366Z,7.57
2019-02-22T09:54:16.214Z,8.10
2019-02-22T09:56:44.984Z,8.20
2019-02-22T09:59:13.612Z,8.50
2019-02-22T10:01:42.419Z,8.00
2019-02-22T10:04:11.170Z,10.17
2019-02-22T10:06:40.009Z,7.83
2019-02-22T10:09:08.881Z,7.70
2019-02-22T10:11:37.550Z,7.67
2019-02-22T10:14:07.068Z,7.90
2019-02-22T10:16:36.006Z,8.10
2019-02-22T10:19:04.745Z,7.50
2019-02-22T10:21:33.547Z,8.27
2019-02-22T10:24:02.292Z,8.67
2019-02-22T10:26:31.069Z,9.10
2019-02-22T10:28:59.840Z,8.53
2019-02-22T10:31:28.533Z,8.90
2019-02-22T10:33:57.278Z,8.20
2019-02-22T10:36:25.954Z,8.40
2019-02-22T10:38:54.690Z,8.60
2019-02-22T10:41:24.702Z,8.57
2019-02-22T10:43:53.391Z,8.27
2019-02-22T10:46:22.582Z,8.23
2019-02-22T10:48:51.355Z,8.20
2019-02-22T10:51:20.332Z,7.20
2019-02-22T10:53:49.177Z,7.60
2019-02-22T10:56:17.912Z,6.87
2019-02-22T10:58:48.180Z,7.57
2019-02-22T11:01:16.893Z,7.33
2019-02-22T11:03:45.557Z,8.00
2019-02-22T11:06:14.225Z,8.17
2019-02-22T11:08:42.889Z,7.17
2019-02-22T11:11:11.698Z,7.60
2019-02-22T11:13:40.534Z,7.60
2019-02-22T11:16:09.225Z,7.87
2019-02-22T11:18:39.464Z,7.30
2019-02-22T11:21:08.685Z,6.60
2019-02-22T11:23:37.562Z,6.70
2019-02-22T11:26:06.403Z,6.70
2019-02-22T11:28:35.182Z,6.57
2019-02-22T11:31:06.271Z,6.10
2019-02-22T11:33:35.102Z,6.30
2019-02-22T11:36:03.945Z,6.90
2019-02-22T11:38:32.830Z,6.43
2019-02-22T11:41:01.586Z,6.20
2019-02-22T11:43:30.555Z,6.43
2019-02-22T11:45:59.329Z,6.70
2019-02-22T11:48:28.027Z,6.40
2019-02-22T11:50:56.844Z,6.57
2019-02-22T11:53:25.688Z,6.50
2019-02-22T11:55:54.563Z,6.47
2019-02-22T11:58:23.529Z,7.23
2019-02-22T12:00:52.412Z,8.83
2019-02-22T12:03:24.645Z,8.63
2019-02-22T12:05:51.511Z,7.97
2019-02-22T12:08:20.413Z,7.20
2019-02-22T12:10:49.376Z,6.60
2019-02-22T12:13:18.076Z,6.83
2019-02-22T12:15:46.883Z,5.60
2019-02-22T12:18:15.718Z,5.70
2019-02-22T12:20:44.455Z,6.17
2019-02-22T12:23:16.298Z,5.90
2019-02-22T12:25:45.017Z,6.50
2019-02-22T12:28:13.798Z,6.40
2019-02-22T12:30:43.427Z,6.67
2019-02-22T12:33:12.165Z,6.10
2019-02-22T12:35:41.148Z,6.90
2019-02-22T12:38:09.891Z,5.77
2019-02-22T12:40:38.735Z,5.40
2019-02-22T12:43:07.536Z,5.23
2019-02-22T12:45:40.456Z,6.00
2019-02-22T12:48:09.386Z,5.40
2019-02-22T12:50:38.005Z,5.60
2019-02-22T12:53:06.864Z,5.37
2019-02-22T12:55:35.716Z,5.97
2019-02-22T12:58:04.522Z,5.87
2019-02-22T13:00:34.859Z,5.50
2019-02-22T13:03:03.701Z,6.00
2019-02-22T13:05:32.388Z,6.23
2019-02-22T13:08:04.317Z,5.83
2019-02-22T13:10:33.133Z,5.73
2019-02-22T13:13:01.812Z,5.73
2019-02-22T13:15:30.775Z,5.50
2019-02-22T13:17:59.390Z,5.83
2019-02-22T13:20:28.250Z,5.27
2019-02-22T13:22:57.092Z,4.80
2019-02-22T13:25:25.786Z,5.70
2019-02-22T13:27:54.392Z,5.73
2019-02-22T13:30:23.341Z,5.50
2019-02-22T13:32:52.076Z,5.03
2019-02-22T13:35:20.824Z,4.77
2019-02-22T13:37:49.496Z,4.97
2019-02-22T13:40:18.730Z,4.97
2019-02-22T13:42:47.371Z,4.63
2019-02-22T13:45:25.942Z,4.90
2019-02-22T13:47:46.726Z,4.30
2019-02-22T13:50:19.335Z,4.40
2019-02-22T13:52:48.128Z,5.10
2019-02-22T13:55:16.977Z,5.50
2019-02-22T13:57:45.739Z,4.90
2019-02-22T14:00:18.864Z,5.17
2019-02-22T14:02:47.581Z,5.40
2019-02-22T14:05:16.435Z,4.40
2019-02-22T14:07:57.769Z,5.10
2019-02-22T14:10:26.913Z,4.90
2019-02-22T14:12:55.729Z,5.13
2019-02-22T14:15:24.575Z,5.70
2019-02-22T14:17:53.549Z,5.23
2019-02-22T14:20:22.272Z,5.17
2019-02-22T14:22:51.619Z,5.10
2019-02-22T14:25:20.294Z,5.80
2019-02-22T14:27:48.968Z,5.40
2019-02-22T14:30:18.327Z,5.00
2019-02-22T14:32:51.637Z,5.13
2019-02-22T14:35:20.431Z,4.73
2019-02-22T14:37:49.280Z,5.43
2019-02-22T14:40:18.577Z,5.13
2019-02-22T14:42:47.207Z,4.80
2019-02-22T14:45:16.024Z,4.33
2019-02-22T14:47:44.736Z,4.17
2019-02-22T14:50:15.421Z,4.00
2019-02-22T14:52:44.109Z,4.10
2019-02-22T14:55:12.898Z,4.00
2019-02-22T14:57:41.653Z,3.77
2019-02-22T15:00:16.507Z,4.27
2019-02-22T15:02:45.220Z,4.50
2019-02-22T15:05:14.923Z,3.90
2019-02-22T15:07:43.651Z,3.67
2019-02-22T15:10:12.670Z,3.73
2019-02-22T15:12:41.448Z,3.67
2019-02-22T15:15:15.182Z,3.53
2019-02-22T15:17:45.575Z,3.83
2019-02-22T15:20:14.402Z,3.93
2019-02-22T15:22:43.186Z,3.90
2019-02-22T15:25:13.775Z,3.30
2019-02-22T15:27:42.405Z,3.57
2019-02-22T15:30:13.980Z,3.50
2019-02-22T15:32:42.765Z,3.73
2019-02-22T15:35:16.080Z,4.37
2019-02-22T15:37:44.834Z,3.70
2019-02-22T15:40:14.563Z,3.77
2019-02-22T15:42:43.380Z,3.33
2019-02-22T15:45:14.313Z,3.70
2019-02-22T15:47:43.900Z,3.27
2019-02-22T15:50:14.359Z,3.30
2019-02-22T15:52:43.651Z,3.60
2019-02-22T15:55:14.331Z,3.13
2019-02-22T15:57:42.675Z,3.40
2019-02-22T16:00:26.548Z,3.27
2019-02-22T16:02:55.401Z,3.90
2019-02-22T16:05:25.718Z,3.43
2019-02-22T16:07:54.480Z,3.87
2019-02-22T16:10:23.220Z,3.50
2019-02-22T16:12:51.991Z,3.30
2019-02-22T16:15:20.852Z,3.37
2019-02-22T16:17:51.101Z,3.00
2019-02-22T16:20:19.860Z,3.80
2019-02-22T16:22:50.846Z,3.33
2019-02-22T16:25:20.107Z,3.00
2019-02-22T16:27:49.430Z,3.13
2019-02-22T16:30:20.234Z,3.30
2019-02-22T16:32:48.991Z,3.10
2019-02-22T16:35:17.735Z,3.20
2019-02-22T16:37:46.676Z,3.83
2019-02-22T16:40:15.419Z,3.27
2019-02-22T16:42:44.055Z,3.07
2019-02-22T16:45:13.797Z,3.27
2019-02-22T16:47:43.963Z,2.90
2019-02-22T16:50:14.200Z,2.90
2019-02-22T16:52:45.077Z,3.57
2019-02-22T16:55:15.410Z,2.73
2019-02-22T16:57:44.271Z,3.37
2019-02-22T17:00:15.039Z,3.10
2019-02-22T17:02:44.490Z,2.80
2019-02-22T17:05:15.758Z,3.10
2019-02-22T17:07:44.477Z,2.73
2019-02-22T17:10:14.382Z,3.27
2019-02-22T17:12:43.074Z,3.00
2019-02-22T17:15:13.447Z,2.73
2019-02-22T17:17:42.232Z,3.07
2019-02-22T17:20:16.377Z,3.07
2019-02-22T17:22:45.072Z,3.10
2019-02-22T17:25:22.913Z,3.13
2019-02-22T17:27:51.523Z,3.10
2019-02-22T17:30:23.441Z,2.60
2019-02-22T17:32:52.065Z,3.07
2019-02-22T17:35:20.856Z,2.63
2019-02-22T17:37:49.496Z,2.50
2019-02-22T17:40:23.290Z,2.83
2019-02-22T17:42:52.054Z,2.60
2019-02-22T17:45:20.792Z,3.43
2019-02-22T17:47:49.690Z,2.90
2019-02-22T17:50:18.425Z,2.77
2019-02-22T17:52:47.195Z,2.60
2019-02-22T17:55:15.864Z,2.90
2019-02-22T17:57:44.471Z,3.60
2019-02-22T18:00:16.875Z,2.70
2019-02-22T18:02:45.655Z,2.80
2019-02-22T18:05:14.649Z,2.90
2019-02-22T18:07:43.193Z,2.80
2019-02-22T18:10:12.469Z,3.17
2019-02-22T18:12:41.232Z,2.77
2019-02-22T18:15:12.802Z,2.90
2019-02-22T18:17:43.861Z,2.60
2019-02-22T18:20:12.713Z,2.77
2019-02-22T18:22:42.637Z,2.97
2019-02-22T18:25:11.375Z,3.00
2019-02-22T18:27:40.129Z,2.90
2019-02-22T18:30:17.769Z,3.00
2019-02-22T18:32:46.407Z,2.73
2019-02-22T18:35:15.199Z,2.90
2019-02-22T18:37:43.990Z,2.70
2019-02-22T18:40:17.988Z,2.90
2019-02-22T18:42:46.743Z,2.70
2019-02-22T18:45:15.530Z,2.60
2019-02-22T18:47:44.269Z,2.90
2019-02-22T18:50:13.022Z,3.00
2019-02-22T18:52:41.716Z,2.80
2019-02-22T18:55:10.894Z,3.03
2019-02-22T18:57:39.776Z,2.80
2019-02-22T19:00:11.612Z,2.50
2019-02-22T19:02:40.328Z,2.60
2019-02-22T19:05:09.976Z,2.60
2019-02-22T19:07:38.788Z,2.93
2019-02-22T19:10:10.688Z,2.60
2019-02-22T19:12:39.478Z,3.10
2019-02-22T19:15:13.139Z,2.40
2019-02-22T19:17:41.944Z,3.10
2019-02-22T19:20:18.558Z,2.90
2019-02-22T19:22:47.383Z,2.50
2019-02-22T19:25:16.044Z,2.60
2019-02-22T19:27:46.548Z,2.50
2019-02-22T19:30:17.563Z,2.20
2019-02-22T19:32:46.352Z,2.77
2019-02-22T19:35:15.082Z,2.50
2019-02-22T19:37:43.788Z,2.70
2019-02-22T19:40:18.295Z,2.80
